createdAt,value
2022-10-11T00:03:04.487Z,23.27
2022-10-11T00:06:09.354Z,23.70
2022-10-11T00:09:14.694Z,11.13
2022-10-11T00:12:19.089Z,16.67
2022-10-11T00:15:24.048Z,10.70
2022-10-11T00:18:28.640Z,18.67
2022-10-11T00:21:33.188Z,13.82
2022-10-11T00:24:37.689Z,16.05
2022-10-11T00:27:41.972Z,11.88
2022-10-11T00:30:46.099Z,27.95
2022-10-11T00:33:50.504Z,18.70
2022-10-11T00:36:54.944Z,33.47
2022-10-11T00:39:59.447Z,13.32
2022-10-11T00:43:03.740Z,24.85
2022-10-11T00:46:13.995Z,16.92
2022-10-11T00:49:34.259Z,23.02
2022-10-11T00:52:45.983Z,20.23
2022-10-11T00:55:59.604Z,12.57
2022-10-11T00:59:12.405Z,25.70
2022-10-11T01:02:18.476Z,26.77
2022-10-11T01:05:29.575Z,19.15
2022-10-11T01:08:34.799Z,25.15
2022-10-11T01:11:41.292Z,16.92
2022-10-11T01:15:15.980Z,13.15
2022-10-11T01:18:40.603Z,21.80
2022-10-11T01:21:57.744Z,26.00
2022-10-11T01:25:47.064Z,14.00
2022-10-11T01:29:46.351Z,24.10
2022-10-11T01:33:29.056Z,31.20
2022-10-11T01:37:05.766Z,27.40
2022-10-11T01:40:34.373Z,37.13
2022-10-11T01:43:40.839Z,32.55
2022-10-11T01:46:45.172Z,27.92
2022-10-11T01:50:01.670Z,30.45
2022-10-11T01:53:47.570Z,24.92
2022-10-11T01:57:16.507Z,22.65
2022-10-11T02:00:28.683Z,23.27
2022-10-11T02:03:43.716Z,30.92
2022-10-11T02:07:27.334Z,30.20
2022-10-11T02:10:51.441Z,21.25
2022-10-11T02:14:25.206Z,33.33
2022-10-11T02:17:36.087Z,24.60
2022-10-11T02:20:44.264Z,27.15
2022-10-11T02:24:01.832Z,29.50
2022-10-11T02:27:07.690Z,35.20
2022-10-11T02:30:12.382Z,20.88
2022-10-11T02:33:25.763Z,27.05
2022-10-11T02:36:53.983Z,33.33
2022-10-11T02:40:21.524Z,25.20
2022-10-11T02:43:38.486Z,27.98
2022-10-11T02:46:44.261Z,36.83
2022-10-11T02:49:48.554Z,22.33
2022-10-11T02:52:52.831Z,40.65
2022-10-11T02:55:57.116Z,34.17
2022-10-11T02:59:01.450Z,54.95
2022-10-11T03:02:05.419Z,30.38
2022-10-11T03:05:09.782Z,32.97
2022-10-11T03:08:16.960Z,39.20
2022-10-11T03:11:21.370Z,35.80
2022-10-11T03:14:25.937Z,33.15
2022-10-11T03:20:42.447Z,33.70
2022-10-11T03:23:46.653Z,30.27
2022-10-11T03:26:50.611Z,32.25
2022-10-11T03:29:54.759Z,34.25
2022-10-11T03:32:59.314Z,27.67
2022-10-11T03:36:04.695Z,36.92
2022-10-11T03:39:09.482Z,42.13
2022-10-11T03:42:14.485Z,28.67
2022-10-11T03:45:18.713Z,35.00
2022-10-11T03:48:22.856Z,41.42
2022-10-11T03:51:27.700Z,38.95
2022-10-11T03:54:32.275Z,35.03
2022-10-11T03:57:36.816Z,28.75
2022-10-11T04:00:41.094Z,27.10
2022-10-11T04:03:45.500Z,33.88
2022-10-11T04:06:50.238Z,35.83
2022-10-11T04:09:54.811Z,37.85
2022-10-11T04:12:59.386Z,45.08
2022-10-11T04:16:04.528Z,44.45
2022-10-11T04:19:09.095Z,33.70
2022-10-11T04:22:13.419Z,36.75
2022-10-11T04:25:17.708Z,32.80
2022-10-11T04:28:22.009Z,35.08
2022-10-11T04:31:26.486Z,32.40
2022-10-11T04:37:35.477Z,38.38
2022-10-11T04:40:40.284Z,43.13
2022-10-11T04:43:44.709Z,39.28
2022-10-11T04:46:49.111Z,30.88
2022-10-11T04:49:53.367Z,37.70
2022-10-11T04:52:57.874Z,45.22
2022-10-11T04:56:05.992Z,26.73
2022-10-11T04:59:10.694Z,31.52
2022-10-11T05:02:15.070Z,35.30
2022-10-11T05:05:19.584Z,33.28
2022-10-11T05:17:37.072Z,30.67
2022-10-11T05:20:41.586Z,36.40
2022-10-11T05:23:47.607Z,35.10
2022-10-11T05:26:51.876Z,33.05
2022-10-11T05:29:56.044Z,34.80
2022-10-11T05:33:00.359Z,33.88
2022-10-11T05:36:06.040Z,35.50
2022-10-11T05:39:10.821Z,31.58
2022-10-11T05:42:15.379Z,39.33
2022-10-11T05:45:19.692Z,41.53
2022-10-11T05:48:24.194Z,51.42
2022-10-11T05:51:28.808Z,37.78
2022-10-11T05:54:33.296Z,37.85
2022-10-11T05:57:37.248Z,46.33
2022-10-11T06:00:41.618Z,47.10
2022-10-11T06:03:45.877Z,50.92
2022-10-11T06:06:50.228Z,55.88
2022-10-11T06:09:54.700Z,50.10
2022-10-11T06:12:58.984Z,40.92
2022-10-11T06:16:07.314Z,38.17
2022-10-11T06:19:12.156Z,47.40
2022-10-11T06:22:17.132Z,44.38
2022-10-11T06:25:21.603Z,44.10
2022-10-11T06:28:28.374Z,44.42
2022-10-11T06:31:33.144Z,55.08
2022-10-11T06:34:37.282Z,52.55
2022-10-11T06:37:41.504Z,55.35
2022-10-11T06:43:49.849Z,51.22
2022-10-11T06:46:54.102Z,49.58
2022-10-11T06:49:58.815Z,38.85
2022-10-11T06:53:03.221Z,61.15
2022-10-11T06:56:13.011Z,33.50
2022-10-11T06:59:17.438Z,49.78
2022-10-11T07:05:25.817Z,44.38
2022-10-11T07:08:30.698Z,30.77
2022-10-11T07:11:35.474Z,35.42
2022-10-11T07:14:39.499Z,37.63
2022-10-11T07:17:44.256Z,51.97
2022-10-11T07:20:48.807Z,42.72
2022-10-11T07:23:53.210Z,41.75
2022-10-11T07:30:01.374Z,47.03
2022-10-11T07:33:06.039Z,37.35
2022-10-11T07:36:10.917Z,43.05
2022-10-11T07:39:15.916Z,49.47
2022-10-11T07:42:20.250Z,33.17
2022-10-11T07:45:29.009Z,49.42
2022-10-11T07:48:35.002Z,36.47
2022-10-11T07:51:39.024Z,32.92
2022-10-11T07:54:43.362Z,37.33
2022-10-11T07:57:47.837Z,37.53
2022-10-11T08:00:55.456Z,36.80
2022-10-11T08:04:00.041Z,43.72
2022-10-11T08:07:04.703Z,47.00
2022-10-11T08:10:10.098Z,36.15
2022-10-11T08:13:14.494Z,35.50
2022-10-11T08:16:18.873Z,39.28
2022-10-11T08:19:23.441Z,37.30
2022-10-11T08:22:27.692Z,32.42
2022-10-11T08:28:36.559Z,30.00
2022-10-11T08:31:41.087Z,34.53
2022-10-11T08:34:45.487Z,32.80
2022-10-11T08:37:49.858Z,32.72
2022-10-11T08:45:05.573Z,35.13
2022-10-11T08:48:38.122Z,44.33
2022-10-11T08:51:50.820Z,34.72
2022-10-11T08:55:25.290Z,23.63
2022-10-11T08:59:12.215Z,27.95
2022-10-11T09:02:21.650Z,28.65
2022-10-11T09:05:50.967Z,35.30
2022-10-11T09:09:37.391Z,37.95
2022-10-11T09:12:59.709Z,24.33
2022-10-11T09:16:34.791Z,30.80
2022-10-11T09:19:59.364Z,39.22
2022-10-11T09:23:11.192Z,29.92
2022-10-11T09:27:00.889Z,37.53
2022-10-11T09:30:16.275Z,43.03
2022-10-11T09:33:33.925Z,43.38
2022-10-11T09:37:12.724Z,37.55
2022-10-11T09:40:44.605Z,31.83
2022-10-11T09:43:51.423Z,30.83
2022-10-11T09:46:57.929Z,35.42
2022-10-11T09:50:15.680Z,32.53
2022-10-11T09:53:21.652Z,30.77
2022-10-11T09:56:29.395Z,38.40
2022-10-11T09:59:35.612Z,28.23
2022-10-11T10:02:47.399Z,21.05
2022-10-11T10:06:38.234Z,16.27
2022-10-11T10:09:42.209Z,30.77
2022-10-11T10:12:55.848Z,24.38
2022-10-11T10:16:00.396Z,25.15
2022-10-11T10:19:21.647Z,38.60
2022-10-11T10:22:33.342Z,27.60
2022-10-11T10:25:43.247Z,19.25
2022-10-11T10:29:09.375Z,15.85
2022-10-11T10:32:22.575Z,25.15
2022-10-11T10:35:51.190Z,19.80
2022-10-11T10:39:16.033Z,21.45
2022-10-11T10:45:44.241Z,16.67
2022-10-11T10:49:41.140Z,26.80
2022-10-11T10:53:33.567Z,11.52
2022-10-11T10:56:52.090Z,25.80
2022-10-11T11:00:09.479Z,13.20
2022-10-11T11:03:36.571Z,18.20
2022-10-11T11:06:44.008Z,15.77
2022-10-11T11:10:06.567Z,19.70
2022-10-11T11:13:54.699Z,17.35
2022-10-11T11:17:30.168Z,25.83
2022-10-11T11:20:53.158Z,17.65
2022-10-11T11:24:37.906Z,16.25
2022-10-11T11:28:10.876Z,20.90
2022-10-11T11:32:05.267Z,16.90
2022-10-11T11:35:48.468Z,17.90
2022-10-11T11:39:03.418Z,20.55
2022-10-11T11:42:17.973Z,12.98
2022-10-11T11:45:33.614Z,18.00
2022-10-11T11:48:38.663Z,14.65
2022-10-11T11:51:46.208Z,11.35
2022-10-11T11:55:11.310Z,10.55
2022-10-11T12:02:27.394Z,7.70
2022-10-11T12:05:36.121Z,17.30
2022-10-11T12:08:48.403Z,14.05
2022-10-11T12:12:06.975Z,12.30
2022-10-11T12:15:26.684Z,14.95
2022-10-11T12:18:38.141Z,11.45
2022-10-11T12:21:45.091Z,9.73
2022-10-11T12:24:59.619Z,20.27
2022-10-11T12:28:42.197Z,13.25
2022-10-11T12:32:10.992Z,20.58
2022-10-11T12:35:33.755Z,19.33
2022-10-11T12:38:40.112Z,18.70
2022-10-11T12:41:47.623Z,13.80
2022-10-11T12:45:13.633Z,16.58
2022-10-11T12:48:46.189Z,14.25
2022-10-11T12:52:52.850Z,11.55
2022-10-11T12:56:18.374Z,16.77
2022-10-11T12:59:23.910Z,26.52
2022-10-11T13:02:42.465Z,20.77
2022-10-11T13:05:51.010Z,18.08
2022-10-11T13:09:24.892Z,37.38
2022-10-11T13:12:40.027Z,22.60
2022-10-11T13:15:45.411Z,20.95
2022-10-11T13:18:56.107Z,21.00
2022-10-11T13:22:17.463Z,18.48
2022-10-11T13:25:37.067Z,15.75
2022-10-11T13:28:42.890Z,13.25
2022-10-11T13:31:48.644Z,11.88
2022-10-11T13:38:15.626Z,19.02
2022-10-11T13:41:21.560Z,18.30
2022-10-11T13:44:27.032Z,13.65
2022-10-11T13:47:32.932Z,9.02
2022-10-11T13:50:39.337Z,10.10
2022-10-11T13:54:06.221Z,9.48
2022-10-11T13:57:13.338Z,10.35
2022-10-11T14:00:17.616Z,12.82
2022-10-11T14:03:24.647Z,10.85
2022-10-11T14:07:04.415Z,10.23
2022-10-11T14:10:21.908Z,8.00
2022-10-11T14:13:55.119Z,14.27
2022-10-11T14:17:10.134Z,12.70
2022-10-11T14:20:29.525Z,10.30
2022-10-11T14:23:36.802Z,7.00
2022-10-11T14:30:06.185Z,10.10
2022-10-11T14:33:13.643Z,11.93
2022-10-11T14:36:17.953Z,9.25
2022-10-11T14:39:28.117Z,8.55
2022-10-11T14:42:32.068Z,7.43
2022-10-11T14:45:37.716Z,9.85
2022-10-11T14:48:57.063Z,10.65
2022-10-11T14:52:02.517Z,8.70
2022-10-11T14:55:07.049Z,15.70
2022-10-11T14:58:14.483Z,13.00
2022-10-11T15:01:19.024Z,7.38
2022-10-11T15:04:26.088Z,20.02
2022-10-11T15:07:30.457Z,9.38
2022-10-11T15:10:39.752Z,10.57
2022-10-11T15:13:44.502Z,14.20
2022-10-11T15:16:49.158Z,15.82
2022-10-11T15:19:53.231Z,13.10
2022-10-11T15:22:59.422Z,18.92
2022-10-11T15:26:03.647Z,13.82
2022-10-11T15:29:11.635Z,22.83
2022-10-11T15:32:15.858Z,19.50
2022-10-11T15:35:22.938Z,16.27
2022-10-11T15:38:27.912Z,15.18
2022-10-11T15:41:32.146Z,14.13
2022-10-11T15:44:36.747Z,9.50
2022-10-11T15:47:40.792Z,13.50
2022-10-11T15:50:45.810Z,14.13
2022-10-11T15:53:49.716Z,8.48
2022-10-11T15:56:53.895Z,13.30
2022-10-11T15:59:58.302Z,10.90
2022-10-11T16:03:02.767Z,12.70
2022-10-11T16:06:08.489Z,9.57
2022-10-11T16:09:12.858Z,13.77
2022-10-11T16:12:17.489Z,19.30
2022-10-11T16:15:22.939Z,12.70
2022-10-11T16:18:32.631Z,12.05
2022-10-11T16:21:39.532Z,15.00
2022-10-11T16:24:44.232Z,22.05
2022-10-11T16:30:53.802Z,12.68
2022-10-11T16:33:58.001Z,18.10
2022-10-11T16:37:02.804Z,16.15
2022-10-11T16:40:09.444Z,15.23
2022-10-11T16:43:13.823Z,19.58
2022-10-11T16:46:18.901Z,25.27
2022-10-11T16:49:28.750Z,24.90
2022-10-11T16:52:33.362Z,18.92
2022-10-11T16:55:39.806Z,14.88
2022-10-11T16:58:44.252Z,12.63
2022-10-11T17:01:49.442Z,32.78
2022-10-11T17:04:54.070Z,39.88
2022-10-11T17:07:58.576Z,41.22
2022-10-11T17:11:03.525Z,44.00
2022-10-11T17:14:07.957Z,37.95
2022-10-11T17:17:12.657Z,30.48
2022-10-11T17:20:17.967Z,26.27
2022-10-11T17:23:22.611Z,21.38
2022-10-11T17:26:27.729Z,11.80
2022-10-11T17:29:32.438Z,13.38
2022-10-11T17:32:36.409Z,20.45
2022-10-11T17:35:40.521Z,13.50
2022-10-11T17:38:45.525Z,23.83
2022-10-11T17:41:50.799Z,23.52
2022-10-11T17:44:55.669Z,21.05
2022-10-11T17:48:02.649Z,18.02
2022-10-11T17:51:15.408Z,24.77
2022-10-11T17:54:19.971Z,29.08
2022-10-11T18:00:27.953Z,24.60
2022-10-11T18:03:32.471Z,15.05
2022-10-11T18:06:39.722Z,14.73
2022-10-11T18:09:44.547Z,14.82
2022-10-11T18:12:52.935Z,13.57
2022-10-11T18:15:57.653Z,13.90
2022-10-11T18:19:04.815Z,17.60
2022-10-11T18:22:09.118Z,10.75
2022-10-11T18:25:13.567Z,19.85
2022-10-11T18:28:18.148Z,10.65
2022-10-11T18:31:25.998Z,9.82
2022-10-11T18:34:30.562Z,18.48
2022-10-11T18:37:34.748Z,13.27
2022-10-11T18:40:44.694Z,14.43
2022-10-11T18:43:56.855Z,11.15
2022-10-11T18:47:01.265Z,13.82
2022-10-11T18:50:06.484Z,11.13
2022-10-11T18:53:11.039Z,10.85
2022-10-11T18:56:20.523Z,12.10
2022-10-11T18:59:25.111Z,14.30
2022-10-11T19:02:29.229Z,5.68
2022-10-11T19:05:33.434Z,10.18
2022-10-11T19:08:37.942Z,10.45
2022-10-11T19:11:42.492Z,8.90
2022-10-11T19:14:48.506Z,9.52
2022-10-11T19:17:52.682Z,12.00
2022-10-11T19:20:56.558Z,10.70
2022-10-11T19:27:05.105Z,9.80
2022-10-11T19:30:09.742Z,8.32
2022-10-11T19:33:14.139Z,13.90
2022-10-11T19:36:19.127Z,5.35
2022-10-11T19:39:24.562Z,9.15
2022-10-11T19:42:29.249Z,10.93
2022-10-11T19:45:35.578Z,10.00
2022-10-11T19:48:40.233Z,8.30
2022-10-11T19:51:44.686Z,9.65
2022-10-11T19:57:53.171Z,7.97
2022-10-11T20:01:01.763Z,13.65
2022-10-11T20:04:22.609Z,5.80
2022-10-11T20:07:32.161Z,5.20
2022-10-11T20:10:36.781Z,6.72
2022-10-11T20:13:41.536Z,6.72
2022-10-11T20:16:45.781Z,6.97
2022-10-11T20:19:49.987Z,9.45
2022-10-11T20:26:04.539Z,16.05
2022-10-11T20:29:08.803Z,16.05
2022-10-11T20:32:13.107Z,18.60
2022-10-11T20:35:17.958Z,18.77
2022-10-11T20:38:22.204Z,21.30
2022-10-11T20:41:31.609Z,32.58
2022-10-11T20:44:35.745Z,27.17
2022-10-11T20:50:45.358Z,19.83
2022-10-11T20:53:50.669Z,14.52
2022-10-11T20:56:55.382Z,22.40
2022-10-11T20:59:59.534Z,105.38
2022-10-11T21:03:03.988Z,79.07
2022-10-11T21:09:15.601Z,23.25
2022-10-11T21:12:21.302Z,25.92
2022-10-11T21:15:26.099Z,22.55
2022-10-11T21:18:31.123Z,22.55
2022-10-11T21:21:35.719Z,17.92
2022-10-11T21:24:39.902Z,22.00
2022-10-11T21:30:48.493Z,23.70
2022-10-11T21:33:52.886Z,19.77
2022-10-11T21:40:01.000Z,24.23
2022-10-11T21:43:05.751Z,19.45
2022-10-11T21:46:18.534Z,25.38
2022-10-11T21:49:22.886Z,22.15
2022-10-11T21:52:27.415Z,18.13
2022-10-11T21:55:31.659Z,17.90
2022-10-11T21:58:35.837Z,20.20
2022-10-11T22:01:41.881Z,22.25
2022-10-11T22:04:46.607Z,19.60
2022-10-11T22:07:50.794Z,24.23
2022-10-11T22:10:59.609Z,26.40
2022-10-11T22:14:04.126Z,23.83
2022-10-11T22:17:08.870Z,20.77
2022-10-11T22:20:13.494Z,21.98
2022-10-11T22:23:19.136Z,19.83
2022-10-11T22:26:29.845Z,33.42
2022-10-11T22:29:34.539Z,24.48
2022-10-11T22:32:38.831Z,21.35
2022-10-11T22:38:47.476Z,30.65
2022-10-11T22:41:54.470Z,29.35
2022-10-11T22:44:58.897Z,27.55
2022-10-11T22:48:03.882Z,30.13
2022-10-11T22:51:08.399Z,33.47
2022-10-11T22:54:12.518Z,33.38
2022-10-11T22:57:16.728Z,38.00
2022-10-11T23:00:21.362Z,25.60
2022-10-11T23:03:26.020Z,31.35
2022-10-11T23:06:30.398Z,43.60
2022-10-11T23:09:34.576Z,36.38
2022-10-11T23:12:39.186Z,34.63
2022-10-11T23:15:43.855Z,32.28
2022-10-11T23:18:51.616Z,28.58
2022-10-11T23:21:56.215Z,27.90
2022-10-11T23:25:00.655Z,31.33
2022-10-11T23:31:17.930Z,31.15
2022-10-11T23:34:22.092Z,32.70
2022-10-11T23:37:26.144Z,26.75
2022-10-11T23:40:30.442Z,38.17
2022-10-11T23:43:35.892Z,38.35
2022-10-11T23:46:40.347Z,35.50
2022-10-11T23:52:48.775Z,35.95
2022-10-11T23:55:52.766Z,28.55
2022-10-11T23:58:56.922Z,26.63
